sensor_id;sensor_type;location;lat;lon;timestamp;temperature;humidity
3035;DHT22;1527;48.836;9.172;2022-08-19T00:00:57;23.50;99.90
3035;DHT22;1527;48.836;9.172;2022-08-19T00:03:28;23.50;99.90
3035;DHT22;1527;48.836;9.172;2022-08-19T00:05:57;23.50;99.90
3035;DHT22;1527;48.836;9.172;2022-08-19T00:08:26;23.50;99.90
3035;DHT22;1527;48.836;9.172;2022-08-19T00:10:56;23.40;99.90
3035;DHT22;1527;48.836;9.172;2022-08-19T00:13:25;23.30;99.90
3035;DHT22;1527;48.836;9.172;2022-08-19T00:15:56;23.30;99.90
3035;DHT22;1527;48.836;9.172;2022-08-19T00:18:27;23.30;99.90
3035;DHT22;1527;48.836;9.172;2022-08-19T00:20:57;23.40;99.90
3035;DHT22;1527;48.836;9.172;2022-08-19T00:23:27;23.40;99.90
3035;DHT22;1527;48.836;9.172;2022-08-19T00:25:56;23.30;99.90
3035;DHT22;1527;48.836;9.172;2022-08-19T00:28:25;23.40;99.90
3035;DHT22;1527;48.836;9.172;2022-08-19T00:30:54;23.40;99.90
3035;DHT22;1527;48.836;9.172;2022-08-19T00:33:23;23.40;99.90
3035;DHT22;1527;48.836;9.172;2022-08-19T00:35:58;23.30;99.90
3035;DHT22;1527;48.836;9.172;2022-08-19T00:38:28;23.20;99.90
3035;DHT22;1527;48.836;9.172;2022-08-19T00:41:05;23.20;99.90
3035;DHT22;1527;48.836;9.172;2022-08-19T00:43:34;23.30;99.90
3035;DHT22;1527;48.836;9.172;2022-08-19T00:46:06;23.40;99.90
3035;DHT22;1527;48.836;9.172;2022-08-19T00:48:35;23.30;99.90
3035;DHT22;1527;48.836;9.172;2022-08-19T00:51:06;23.30;99.90
3035;DHT22;1527;48.836;9.172;2022-08-19T00:53:36;23.20;99.90
3035;DHT22;1527;48.836;9.172;2022-08-19T00:56:05;23.30;99.90
3035;DHT22;1527;48.836;9.172;2022-08-19T00:58:36;23.20;99.90
3035;DHT22;1527;48.836;9.172;2022-08-19T01:01:05;23.20;99.90
3035;DHT22;1527;48.836;9.172;2022-08-19T01:03:35;23.20;99.90
3035;DHT22;1527;48.836;9.172;2022-08-19T01:06:26;23.30;99.90
3035;DHT22;1527;48.836;9.172;2022-08-19T01:08:55;23.30;99.90
3035;DHT22;1527;48.836;9.172;2022-08-19T01:11:24;23.30;99.90
3035;DHT22;1527;48.836;9.172;2022-08-19T01:13:54;23.30;99.90
3035;DHT22;1527;48.836;9.172;2022-08-19T01:16:25;23.30;99.90
3035;DHT22;1527;48.836;9.172;2022-08-19T01:18:55;23.30;99.90
3035;DHT22;1527;48.836;9.172;2022-08-19T01:21:31;23.30;99.90
3035;DHT22;1527;48.836;9.172;2022-08-19T01:24:05;23.10;99.90
3035;DHT22;1527;48.836;9.172;2022-08-19T01:26:39;23.20;99.90
3035;DHT22;1527;48.836;9.172;2022-08-19T01:29:10;23.20;99.90
3035;DHT22;1527;48.836;9.172;2022-08-19T01:31:41;23.20;99.90
3035;DHT22;1527;48.836;9.172;2022-08-19T01:34:10;23.30;99.90
3035;DHT22;1527;48.836;9.172;2022-08-19T01:36:42;23.30;99.90
3035;DHT22;1527;48.836;9.172;2022-08-19T01:39:18;23.20;99.90
3035;DHT22;1527;48.836;9.172;2022-08-19T01:41:49;23.20;99.90
3035;DHT22;1527;48.836;9.172;2022-08-19T01:44:18;23.20;99.90
3035;DHT22;1527;48.836;9.172;2022-08-19T01:46:51;23.20;99.90
3035;DHT22;1527;48.836;9.172;2022-08-19T01:49:22;23.30;99.90
3035;DHT22;1527;48.836;9.172;2022-08-19T01:51:53;23.30;99.90
3035;DHT22;1527;48.836;9.172;2022-08-19T01:54:25;23.30;99.90
3035;DHT22;1527;48.836;9.172;2022-08-19T01:56:59;23.30;99.90
3035;DHT22;1527;48.836;9.172;2022-08-19T01:59:31;23.20;99.90
3035;DHT22;1527;48.836;9.172;2022-08-19T02:02:01;23.20;99.90
3035;DHT22;1527;48.836;9.172;2022-08-19T02:04:30;23.20;99.90
3035;DHT22;1527;48.836;9.172;2022-08-19T02:07:00;23.20;99.90
3035;DHT22;1527;48.836;9.172;2022-08-19T02:09:31;23.30;99.90
3035;DHT22;1527;48.836;9.172;2022-08-19T02:12:00;23.30;99.90
3035;DHT22;1527;48.836;9.172;2022-08-19T02:14:29;23.20;99.90
3035;DHT22;1527;48.836;9.172;2022-08-19T02:16:59;23.20;99.90
3035;DHT22;1527;48.836;9.172;2022-08-19T02:19:28;23.20;99.90
3035;DHT22;1527;48.836;9.172;2022-08-19T02:22:00;23.10;99.90
3035;DHT22;1527;48.836;9.172;2022-08-19T02:24:31;23.10;99.90
3035;DHT22;1527;48.836;9.172;2022-08-19T02:27:00;22.90;99.90
3035;DHT22;1527;48.836;9.172;2022-08-19T02:29:29;22.90;99.90
3035;DHT22;1527;48.836;9.172;2022-08-19T02:31:58;22.90;99.90
3035;DHT22;1527;48.836;9.172;2022-08-19T02:34:27;22.90;99.90
3035;DHT22;1527;48.836;9.172;2022-08-19T02:36:56;22.90;99.90
3035;DHT22;1527;48.836;9.172;2022-08-19T02:39:31;22.90;99.90
3035;DHT22;1527;48.836;9.172;2022-08-19T02:42:00;22.80;99.90
3035;DHT22;1527;48.836;9.172;2022-08-19T02:44:29;22.80;99.90
3035;DHT22;1527;48.836;9.172;2022-08-19T02:46:58;22.70;99.90
3035;DHT22;1527;48.836;9.172;2022-08-19T02:49:27;22.80;99.90
3035;DHT22;1527;48.836;9.172;2022-08-19T02:52:02;22.70;99.90
3035;DHT22;1527;48.836;9.172;2022-08-19T02:54:33;22.60;99.90
3035;DHT22;1527;48.836;9.172;2022-08-19T02:57:02;22.70;99.90
3035;DHT22;1527;48.836;9.172;2022-08-19T02:59:32;22.60;99.90
3035;DHT22;1527;48.836;9.172;2022-08-19T03:02:02;22.60;99.90
3035;DHT22;1527;48.836;9.172;2022-08-19T03:04:31;22.60;99.90
3035;DHT22;1527;48.836;9.172;2022-08-19T03:07:01;22.60;99.90
3035;DHT22;1527;48.836;9.172;2022-08-19T03:09:39;22.50;99.90
3035;DHT22;1527;48.836;9.172;2022-08-19T03:12:09;22.30;99.90
3035;DHT22;1527;48.836;9.172;2022-08-19T03:14:39;22.20;99.90
3035;DHT22;1527;48.836;9.172;2022-08-19T03:17:08;22.20;99.90
3035;DHT22;1527;48.836;9.172;2022-08-19T03:19:38;22.30;99.90
3035;DHT22;1527;48.836;9.172;2022-08-19T03:22:07;22.30;99.90
3035;DHT22;1527;48.836;9.172;2022-08-19T03:24:40;22.20;99.90
3035;DHT22;1527;48.836;9.172;2022-08-19T03:27:10;22.30;99.90
3035;DHT22;1527;48.836;9.172;2022-08-19T03:29:40;22.30;99.90
3035;DHT22;1527;48.836;9.172;2022-08-19T03:32:11;22.20;99.90
3035;DHT22;1527;48.836;9.172;2022-08-19T03:34:59;22.10;99.90
3035;DHT22;1527;48.836;9.172;2022-08-19T03:37:29;22.10;99.90
3035;DHT22;1527;48.836;9.172;2022-08-19T03:40:11;22.10;99.90
3035;DHT22;1527;48.836;9.172;2022-08-19T03:42:56;22.10;99.90
3035;DHT22;1527;48.836;9.172;2022-08-19T03:45:26;22.20;99.90
3035;DHT22;1527;48.836;9.172;2022-08-19T03:47:56;22.30;99.90
3035;DHT22;1527;48.836;9.172;2022-08-19T03:50:25;22.30;99.90
3035;DHT22;1527;48.836;9.172;2022-08-19T03:52:54;22.30;99.90
3035;DHT22;1527;48.836;9.172;2022-08-19T03:55:24;22.30;99.90
3035;DHT22;1527;48.836;9.172;2022-08-19T03:57:54;22.30;99.90
3035;DHT22;1527;48.836;9.172;2022-08-19T04:00:26;22.40;99.90
3035;DHT22;1527;48.836;9.172;2022-08-19T04:02:55;22.30;99.90
3035;DHT22;1527;48.836;9.172;2022-08-19T04:05:28;22.20;99.90
3035;DHT22;1527;48.836;9.172;2022-08-19T04:07:58;22.20;99.90
3035;DHT22;1527;48.836;9.172;2022-08-19T04:10:29;22.20;99.90
3035;DHT22;1527;48.836;9.172;2022-08-19T04:12:58;22.30;99.90
3035;DHT22;1527;48.836;9.172;2022-08-19T04:15:30;22.30;99.90
3035;DHT22;1527;48.836;9.172;2022-08-19T04:18:03;22.40;99.90
3035;DHT22;1527;48.836;9.172;2022-08-19T04:20:39;22.40;99.90
3035;DHT22;1527;48.836;9.172;2022-08-19T04:23:09;22.30;99.90
3035;DHT22;1527;48.836;9.172;2022-08-19T04:25:43;22.10;99.90
3035;DHT22;1527;48.836;9.172;2022-08-19T04:28:13;22.20;99.90
3035;DHT22;1527;48.836;9.172;2022-08-19T04:30:45;22.00;99.90
3035;DHT22;1527;48.836;9.172;2022-08-19T04:33:31;22.00;99.90
3035;DHT22;1527;48.836;9.172;2022-08-19T04:36:44;22.00;99.90
3035;DHT22;1527;48.836;9.172;2022-08-19T04:39:16;22.00;99.90
3035;DHT22;1527;48.836;9.172;2022-08-19T04:41:57;21.90;99.90
3035;DHT22;1527;48.836;9.172;2022-08-19T04:44:45;22.00;99.90
3035;DHT22;1527;48.836;9.172;2022-08-19T04:47:22;22.00;99.90
3035;DHT22;1527;48.836;9.172;2022-08-19T04:50:14;22.00;99.90
3035;DHT22;1527;48.836;9.172;2022-08-19T04:52:45;22.00;99.90
3035;DHT22;1527;48.836;9.172;2022-08-19T04:55:14;22.00;99.90
3035;DHT22;1527;48.836;9.172;2022-08-19T04:57:45;21.90;99.90
3035;DHT22;1527;48.836;9.172;2022-08-19T05:00:14;21.80;99.90
3035;DHT22;1527;48.836;9.172;2022-08-19T05:02:44;21.70;99.90
3035;DHT22;1527;48.836;9.172;2022-08-19T05:05:13;21.70;99.90
3035;DHT22;1527;48.836;9.172;2022-08-19T05:07:42;21.70;99.90
3035;DHT22;1527;48.836;9.172;2022-08-19T05:10:11;21.70;99.90
3035;DHT22;1527;48.836;9.172;2022-08-19T05:12:40;21.80;99.90
3035;DHT22;1527;48.836;9.172;2022-08-19T05:15:11;21.80;99.90
3035;DHT22;1527;48.836;9.172;2022-08-19T05:17:40;21.80;99.90
3035;DHT22;1527;48.836;9.172;2022-08-19T05:20:30;21.90;99.90
3035;DHT22;1527;48.836;9.172;2022-08-19T05:23:17;21.80;99.90
3035;DHT22;1527;48.836;9.172;2022-08-19T05:25:50;21.80;99.90
3035;DHT22;1527;48.836;9.172;2022-08-19T05:28:20;21.80;99.90
3035;DHT22;1527;48.836;9.172;2022-08-19T05:30:50;21.80;99.90
3035;DHT22;1527;48.836;9.172;2022-08-19T05:33:19;21.80;99.90
3035;DHT22;1527;48.836;9.172;2022-08-19T05:35:49;21.80;99.90
3035;DHT22;1527;48.836;9.172;2022-08-19T05:38:18;21.90;99.90
3035;DHT22;1527;48.836;9.172;2022-08-19T05:40:50;21.80;99.90
3035;DHT22;1527;48.836;9.172;2022-08-19T05:43:19;21.90;99.90
3035;DHT22;1527;48.836;9.172;2022-08-19T05:45:49;22.00;99.90
3035;DHT22;1527;48.836;9.172;2022-08-19T05:48:19;22.10;99.90
3035;DHT22;1527;48.836;9.172;2022-08-19T05:50:48;22.10;99.90
3035;DHT22;1527;48.836;9.172;2022-08-19T05:53:18;22.10;99.90
3035;DHT22;1527;48.836;9.172;2022-08-19T05:55:47;22.10;99.90
3035;DHT22;1527;48.836;9.172;2022-08-19T05:58:17;22.20;99.90
3035;DHT22;1527;48.836;9.172;2022-08-19T06:00:51;22.10;99.90
3035;DHT22;1527;48.836;9.172;2022-08-19T06:03:22;22.10;99.90
3035;DHT22;1527;48.836;9.172;2022-08-19T06:05:51;22.10;99.90
3035;DHT22;1527;48.836;9.172;2022-08-19T06:08:21;22.00;99.90
3035;DHT22;1527;48.836;9.172;2022-08-19T06:11:15;22.10;99.90
3035;DHT22;1527;48.836;9.172;2022-08-19T06:13:50;22.10;99.90
3035;DHT22;1527;48.836;9.172;2022-08-19T06:16:28;22.00;99.90
3035;DHT22;1527;48.836;9.172;2022-08-19T06:19:04;21.90;99.90
3035;DHT22;1527;48.836;9.172;2022-08-19T06:21:37;21.90;99.90
3035;DHT22;1527;48.836;9.172;2022-08-19T06:24:12;21.70;99.90
3035;DHT22;1527;48.836;9.172;2022-08-19T06:26:45;21.70;99.90
3035;DHT22;1527;48.836;9.172;2022-08-19T06:29:17;21.80;99.90
3035;DHT22;1527;48.836;9.172;2022-08-19T06:31:53;21.90;99.90
3035;DHT22;1527;48.836;9.172;2022-08-19T06:34:24;22.00;99.90
3035;DHT22;1527;48.836;9.172;2022-08-19T06:36:56;22.00;99.90
3035;DHT22;1527;48.836;9.172;2022-08-19T06:39:30;22.00;99.90
3035;DHT22;1527;48.836;9.172;2022-08-19T06:42:02;22.00;99.90
3035;DHT22;1527;48.836;9.172;2022-08-19T06:44:39;21.80;99.90
3035;DHT22;1527;48.836;9.172;2022-08-19T06:47:18;21.70;99.90
3035;DHT22;1527;48.836;9.172;2022-08-19T06:49:53;21.70;99.90
3035;DHT22;1527;48.836;9.172;2022-08-19T06:52:31;21.70;99.90
3035;DHT22;1527;48.836;9.172;2022-08-19T06:55:04;21.70;99.90
3035;DHT22;1527;48.836;9.172;2022-08-19T06:57:34;21.70;99.90
3035;DHT22;1527;48.836;9.172;2022-08-19T07:00:04;21.70;99.90
3035;DHT22;1527;48.836;9.172;2022-08-19T07:02:41;21.70;99.90
3035;DHT22;1527;48.836;9.172;2022-08-19T07:05:22;21.70;99.90
3035;DHT22;1527;48.836;9.172;2022-08-19T07:07:51;21.70;99.90
3035;DHT22;1527;48.836;9.172;2022-08-19T07:10:24;21.80;99.90
3035;DHT22;1527;48.836;9.172;2022-08-19T07:12:54;21.90;99.90
3035;DHT22;1527;48.836;9.172;2022-08-19T07:15:23;21.60;99.90
3035;DHT22;1527;48.836;9.172;2022-08-19T07:17:53;21.60;99.90
3035;DHT22;1527;48.836;9.172;2022-08-19T07:20:23;21.60;99.90
3035;DHT22;1527;48.836;9.172;2022-08-19T07:22:55;21.60;99.90
3035;DHT22;1527;48.836;9.172;2022-08-19T07:25:24;21.70;99.90
3035;DHT22;1527;48.836;9.172;2022-08-19T07:27:59;21.80;99.90
3035;DHT22;1527;48.836;9.172;2022-08-19T07:30:28;21.80;99.90
3035;DHT22;1527;48.836;9.172;2022-08-19T07:32:59;22.00;99.90
3035;DHT22;1527;48.836;9.172;2022-08-19T07:35:30;21.90;99.90
3035;DHT22;1527;48.836;9.172;2022-08-19T07:38:00;21.70;99.90
3035;DHT22;1527;48.836;9.172;2022-08-19T07:40:31;21.60;99.90
3035;DHT22;1527;48.836;9.172;2022-08-19T07:43:00;21.70;99.90
3035;DHT22;1527;48.836;9.172;2022-08-19T07:45:29;21.70;99.90
3035;DHT22;1527;48.836;9.172;2022-08-19T07:48:01;21.70;99.90
3035;DHT22;1527;48.836;9.172;2022-08-19T07:50:32;21.70;99.90
3035;DHT22;1527;48.836;9.172;2022-08-19T07:53:01;21.60;99.90
3035;DHT22;1527;48.836;9.172;2022-08-19T07:55:30;21.60;99.90
3035;DHT22;1527;48.836;9.172;2022-08-19T07:58:11;21.60;99.90
3035;DHT22;1527;48.836;9.172;2022-08-19T08:00:43;21.50;99.90
3035;DHT22;1527;48.836;9.172;2022-08-19T08:03:17;21.50;99.90
3035;DHT22;1527;48.836;9.172;2022-08-19T08:05:47;21.40;99.90
3035;DHT22;1527;48.836;9.172;2022-08-19T08:08:33;21.50;99.90
3035;DHT22;1527;48.836;9.172;2022-08-19T08:11:20;21.40;99.90
3035;DHT22;1527;48.836;9.172;2022-08-19T08:13:50;21.40;99.90
3035;DHT22;1527;48.836;9.172;2022-08-19T08:16:33;21.40;99.90
3035;DHT22;1527;48.836;9.172;2022-08-19T08:19:15;21.50;99.90
3035;DHT22;1527;48.836;9.172;2022-08-19T08:21:54;21.50;99.90
3035;DHT22;1527;48.836;9.172;2022-08-19T08:24:24;21.50;99.90
3035;DHT22;1527;48.836;9.172;2022-08-19T08:26:55;21.40;99.90
3035;DHT22;1527;48.836;9.172;2022-08-19T08:29:27;21.50;99.90
3035;DHT22;1527;48.836;9.172;2022-08-19T08:32:02;21.50;99.90
3035;DHT22;1527;48.836;9.172;2022-08-19T08:34:43;21.40;99.90
3035;DHT22;1527;48.836;9.172;2022-08-19T08:37:19;21.60;99.90
3035;DHT22;1527;48.836;9.172;2022-08-19T08:39:49;21.70;99.90
3035;DHT22;1527;48.836;9.172;2022-08-19T08:42:22;21.50;99.90
3035;DHT22;1527;48.836;9.172;2022-08-19T08:44:57;21.70;99.90
3035;DHT22;1527;48.836;9.172;2022-08-19T08:47:32;21.70;99.90
3035;DHT22;1527;48.836;9.172;2022-08-19T08:50:14;21.90;99.90
3035;DHT22;1527;48.836;9.172;2022-08-19T08:52:49;21.90;99.90
3035;DHT22;1527;48.836;9.172;2022-08-19T08:55:23;22.00;99.90
3035;DHT22;1527;48.836;9.172;2022-08-19T08:58:06;22.10;99.90
3035;DHT22;1527;48.836;9.172;2022-08-19T09:00:39;22.00;99.90
3035;DHT22;1527;48.836;9.172;2022-08-19T09:03:14;21.90;99.90
3035;DHT22;1527;48.836;9.172;2022-08-19T09:05:58;22.00;99.90
3035;DHT22;1527;48.836;9.172;2022-08-19T09:08:48;22.10;99.90
3035;DHT22;1527;48.836;9.172;2022-08-19T09:11:33;22.10;99.90
3035;DHT22;1527;48.836;9.172;2022-08-19T09:17:20;21.90;99.90
3035;DHT22;1527;48.836;9.172;2022-08-19T09:20:00;22.00;99.90
3035;DHT22;1527;48.836;9.172;2022-08-19T09:22:38;21.80;99.90
3035;DHT22;1527;48.836;9.172;2022-08-19T09:25:14;21.90;99.90
3035;DHT22;1527;48.836;9.172;2022-08-19T09:27:54;21.80;99.90
3035;DHT22;1527;48.836;9.172;2022-08-19T09:30:34;21.80;99.90
3035;DHT22;1527;48.836;9.172;2022-08-19T09:33:08;21.80;99.90
3035;DHT22;1527;48.836;9.172;2022-08-19T09:35:37;21.90;99.90
3035;DHT22;1527;48.836;9.172;2022-08-19T09:38:21;21.90;99.90
3035;DHT22;1527;48.836;9.172;2022-08-19T09:40:51;21.90;99.90
3035;DHT22;1527;48.836;9.172;2022-08-19T09:43:20;22.10;99.90
3035;DHT22;1527;48.836;9.172;2022-08-19T09:46:01;22.00;99.90
3035;DHT22;1527;48.836;9.172;2022-08-19T09:48:30;22.10;99.90
3035;DHT22;1527;48.836;9.172;2022-08-19T09:51:04;22.10;99.90
3035;DHT22;1527;48.836;9.172;2022-08-19T09:53:39;22.10;99.90
3035;DHT22;1527;48.836;9.172;2022-08-19T09:56:10;22.00;99.90
3035;DHT22;1527;48.836;9.172;2022-08-19T09:58:40;22.10;99.90
3035;DHT22;1527;48.836;9.172;2022-08-19T10:01:14;22.10;99.90
3035;DHT22;1527;48.836;9.172;2022-08-19T10:03:47;22.20;99.90
3035;DHT22;1527;48.836;9.172;2022-08-19T10:06:19;22.20;99.90
3035;DHT22;1527;48.836;9.172;2022-08-19T10:09:09;22.30;99.90
3035;DHT22;1527;48.836;9.172;2022-08-19T10:11:40;22.30;99.90
3035;DHT22;1527;48.836;9.172;2022-08-19T10:14:21;22.20;99.90
3035;DHT22;1527;48.836;9.172;2022-08-19T10:16:50;22.20;99.90
3035;DHT22;1527;48.836;9.172;2022-08-19T10:19:20;22.10;99.90
3035;DHT22;1527;48.836;9.172;2022-08-19T10:21:53;22.30;99.90
3035;DHT22;1527;48.836;9.172;2022-08-19T10:24:28;22.40;99.90
3035;DHT22;1527;48.836;9.172;2022-08-19T10:26:59;22.50;99.90
3035;DHT22;1527;48.836;9.172;2022-08-19T10:29:31;22.40;99.90
3035;DHT22;1527;48.836;9.172;2022-08-19T10:32:04;22.50;99.90
3035;DHT22;1527;48.836;9.172;2022-08-19T10:34:37;22.60;99.90
3035;DHT22;1527;48.836;9.172;2022-08-19T10:37:16;22.70;99.90
3035;DHT22;1527;48.836;9.172;2022-08-19T10:39:59;22.70;99.90
3035;DHT22;1527;48.836;9.172;2022-08-19T10:42:29;22.70;99.90
3035;DHT22;1527;48.836;9.172;2022-08-19T10:44:59;22.80;99.90
3035;DHT22;1527;48.836;9.172;2022-08-19T10:47:31;22.90;99.90
3035;DHT22;1527;48.836;9.172;2022-08-19T10:50:01;22.90;99.90
3035;DHT22;1527;48.836;9.172;2022-08-19T10:52:55;23.10;99.90
3035;DHT22;1527;48.836;9.172;2022-08-19T10:55:25;22.90;99.90
3035;DHT22;1527;48.836;9.172;2022-08-19T10:58:13;22.90;99.90
3035;DHT22;1527;48.836;9.172;2022-08-19T11:00:51;23.10;99.90
3035;DHT22;1527;48.836;9.172;2022-08-19T11:03:21;23.10;99.90
3035;DHT22;1527;48.836;9.172;2022-08-19T11:05:58;23.20;99.90
3035;DHT22;1527;48.836;9.172;2022-08-19T11:08:28;23.30;99.90
3035;DHT22;1527;48.836;9.172;2022-08-19T11:11:01;23.30;99.90
3035;DHT22;1527;48.836;9.172;2022-08-19T11:13:32;23.30;99.90
3035;DHT22;1527;48.836;9.172;2022-08-19T11:16:08;23.40;99.90
3035;DHT22;1527;48.836;9.172;2022-08-19T11:18:43;23.40;99.90
3035;DHT22;1527;48.836;9.172;2022-08-19T11:21:16;23.50;99.90
3035;DHT22;1527;48.836;9.172;2022-08-19T11:23:50;23.50;99.90
3035;DHT22;1527;48.836;9.172;2022-08-19T11:26:24;23.60;99.90
3035;DHT22;1527;48.836;9.172;2022-08-19T11:28:56;23.60;99.90
3035;DHT22;1527;48.836;9.172;2022-08-19T11:31:28;23.70;99.90
3035;DHT22;1527;48.836;9.172;2022-08-19T11:34:01;23.80;99.90
3035;DHT22;1527;48.836;9.172;2022-08-19T11:36:32;23.80;99.90
3035;DHT22;1527;48.836;9.172;2022-08-19T11:39:02;23.80;99.90
3035;DHT22;1527;48.836;9.172;2022-08-19T11:41:34;23.90;99.90
3035;DHT22;1527;48.836;9.172;2022-08-19T11:44:03;23.90;99.90
3035;DHT22;1527;48.836;9.172;2022-08-19T11:46:35;23.90;99.90
3035;DHT22;1527;48.836;9.172;2022-08-19T11:49:06;23.90;99.90
3035;DHT22;1527;48.836;9.172;2022-08-19T11:51:41;24.00;99.90
3035;DHT22;1527;48.836;9.172;2022-08-19T11:54:12;24.00;99.90
3035;DHT22;1527;48.836;9.172;2022-08-19T11:56:45;24.00;99.90
3035;DHT22;1527;48.836;9.172;2022-08-19T11:59:16;24.00;99.90
3035;DHT22;1527;48.836;9.172;2022-08-19T12:01:45;24.00;99.90
3035;DHT22;1527;48.836;9.172;2022-08-19T12:04:15;24.00;99.90
3035;DHT22;1527;48.836;9.172;2022-08-19T12:06:47;24.10;99.90
3035;DHT22;1527;48.836;9.172;2022-08-19T12:09:17;24.10;99.90
3035;DHT22;1527;48.836;9.172;2022-08-19T12:11:48;24.10;99.90
3035;DHT22;1527;48.836;9.172;2022-08-19T12:14:18;24.10;99.90
3035;DHT22;1527;48.836;9.172;2022-08-19T12:16:47;24.10;99.90
3035;DHT22;1527;48.836;9.172;2022-08-19T12:19:19;24.10;99.90
3035;DHT22;1527;48.836;9.172;2022-08-19T12:21:50;24.20;99.90
3035;DHT22;1527;48.836;9.172;2022-08-19T12:24:20;24.30;99.90
3035;DHT22;1527;48.836;9.172;2022-08-19T12:26:52;24.30;99.90
3035;DHT22;1527;48.836;9.172;2022-08-19T12:29:27;24.40;99.90
3035;DHT22;1527;48.836;9.172;2022-08-19T12:31:58;24.40;99.90
3035;DHT22;1527;48.836;9.172;2022-08-19T12:34:30;24.40;99.90
3035;DHT22;1527;48.836;9.172;2022-08-19T12:37:02;24.40;99.90
3035;DHT22;1527;48.836;9.172;2022-08-19T12:39:38;24.40;99.90
3035;DHT22;1527;48.836;9.172;2022-08-19T12:42:12;24.50;99.90
3035;DHT22;1527;48.836;9.172;2022-08-19T12:44:43;24.60;99.90
3035;DHT22;1527;48.836;9.172;2022-08-19T12:47:13;24.60;99.90
3035;DHT22;1527;48.836;9.172;2022-08-19T12:49:43;24.70;99.90
3035;DHT22;1527;48.836;9.172;2022-08-19T12:52:23;24.80;99.90
3035;DHT22;1527;48.836;9.172;2022-08-19T12:54:56;24.90;99.90
3035;DHT22;1527;48.836;9.172;2022-08-19T12:57:28;25.00;99.90
3035;DHT22;1527;48.836;9.172;2022-08-19T13:00:04;25.10;99.90
3035;DHT22;1527;48.836;9.172;2022-08-19T13:02:37;25.10;99.90
3035;DHT22;1527;48.836;9.172;2022-08-19T13:05:10;25.00;99.90
3035;DHT22;1527;48.836;9.172;2022-08-19T13:07:42;25.00;99.90
3035;DHT22;1527;48.836;9.172;2022-08-19T13:10:15;25.00;99.90
3035;DHT22;1527;48.836;9.172;2022-08-19T13:12:48;25.00;99.90
3035;DHT22;1527;48.836;9.172;2022-08-19T13:15:19;25.00;99.90
3035;DHT22;1527;48.836;9.172;2022-08-19T13:17:52;25.00;99.90
3035;DHT22;1527;48.836;9.172;2022-08-19T13:20:24;25.00;99.90
3035;DHT22;1527;48.836;9.172;2022-08-19T13:22:54;25.00;99.90
3035;DHT22;1527;48.836;9.172;2022-08-19T13:25:25;25.10;99.90
3035;DHT22;1527;48.836;9.172;2022-08-19T13:27:55;25.00;99.90
3035;DHT22;1527;48.836;9.172;2022-08-19T13:30:24;25.00;99.90
3035;DHT22;1527;48.836;9.172;2022-08-19T13:33:11;25.00;99.90
3035;DHT22;1527;48.836;9.172;2022-08-19T13:35:46;24.90;99.90
3035;DHT22;1527;48.836;9.172;2022-08-19T13:38:19;24.90;99.90
3035;DHT22;1527;48.836;9.172;2022-08-19T13:40:51;24.60;99.90
3035;DHT22;1527;48.836;9.172;2022-08-19T13:43:25;24.50;99.90
3035;DHT22;1527;48.836;9.172;2022-08-19T13:45:55;24.50;99.90
3035;DHT22;1527;48.836;9.172;2022-08-19T13:48:25;24.40;99.90
3035;DHT22;1527;48.836;9.172;2022-08-19T13:50:56;24.30;99.90
3035;DHT22;1527;48.836;9.172;2022-08-19T13:53:26;24.30;99.90
3035;DHT22;1527;48.836;9.172;2022-08-19T13:55:55;24.10;99.90
3035;DHT22;1527;48.836;9.172;2022-08-19T13:58:26;23.90;99.90
3035;DHT22;1527;48.836;9.172;2022-08-19T14:00:55;23.80;99.90
3035;DHT22;1527;48.836;9.172;2022-08-19T14:03:27;23.80;99.90
3035;DHT22;1527;48.836;9.172;2022-08-19T14:06:00;23.80;99.90
3035;DHT22;1527;48.836;9.172;2022-08-19T14:08:30;24.00;99.90
3035;DHT22;1527;48.836;9.172;2022-08-19T14:11:00;24.00;99.90
3035;DHT22;1527;48.836;9.172;2022-08-19T14:13:34;24.00;99.90
3035;DHT22;1527;48.836;9.172;2022-08-19T14:16:09;24.10;99.90
3035;DHT22;1527;48.836;9.172;2022-08-19T14:18:41;24.10;99.90
3035;DHT22;1527;48.836;9.172;2022-08-19T14:21:15;24.00;99.90
3035;DHT22;1527;48.836;9.172;2022-08-19T14:23:45;23.80;99.90
3035;DHT22;1527;48.836;9.172;2022-08-19T14:26:16;23.90;99.90
3035;DHT22;1527;48.836;9.172;2022-08-19T14:28:48;24.00;99.90
3035;DHT22;1527;48.836;9.172;2022-08-19T14:31:19;23.90;99.90
3035;DHT22;1527;48.836;9.172;2022-08-19T14:33:57;23.90;99.90
3035;DHT22;1527;48.836;9.172;2022-08-19T14:36:27;24.00;99.90
3035;DHT22;1527;48.836;9.172;2022-08-19T14:38:56;24.00;99.90
3035;DHT22;1527;48.836;9.172;2022-08-19T14:41:26;24.00;99.90
3035;DHT22;1527;48.836;9.172;2022-08-19T14:43:59;24.00;99.90
3035;DHT22;1527;48.836;9.172;2022-08-19T14:46:29;24.00;99.90
3035;DHT22;1527;48.836;9.172;2022-08-19T14:48:59;24.00;99.90
3035;DHT22;1527;48.836;9.172;2022-08-19T14:51:36;24.00;99.90
3035;DHT22;1527;48.836;9.172;2022-08-19T14:54:05;23.80;99.90
3035;DHT22;1527;48.836;9.172;2022-08-19T14:56:34;23.90;99.90
3035;DHT22;1527;48.836;9.172;2022-08-19T14:59:05;24.00;99.90
3035;DHT22;1527;48.836;9.172;2022-08-19T15:01:34;23.90;99.90
3035;DHT22;1527;48.836;9.172;2022-08-19T15:04:04;24.00;99.90
3035;DHT22;1527;48.836;9.172;2022-08-19T15:06:33;24.00;99.90
3035;DHT22;1527;48.836;9.172;2022-08-19T15:09:03;24.00;99.90
3035;DHT22;1527;48.836;9.172;2022-08-19T15:11:33;24.00;99.90
3035;DHT22;1527;48.836;9.172;2022-08-19T15:14:06;24.00;99.90
3035;DHT22;1527;48.836;9.172;2022-08-19T15:16:35;24.00;99.90
3035;DHT22;1527;48.836;9.172;2022-08-19T15:19:05;23.90;99.90
3035;DHT22;1527;48.836;9.172;2022-08-19T15:21:34;23.90;99.90
3035;DHT22;1527;48.836;9.172;2022-08-19T15:24:04;24.00;99.90
3035;DHT22;1527;48.836;9.172;2022-08-19T15:26:35;23.90;99.90
3035;DHT22;1527;48.836;9.172;2022-08-19T15:29:05;23.80;99.90
3035;DHT22;1527;48.836;9.172;2022-08-19T15:31:35;23.90;99.90
3035;DHT22;1527;48.836;9.172;2022-08-19T15:34:06;23.90;99.90
3035;DHT22;1527;48.836;9.172;2022-08-19T15:36:36;24.00;99.90
3035;DHT22;1527;48.836;9.172;2022-08-19T15:39:05;24.00;99.90
3035;DHT22;1527;48.836;9.172;2022-08-19T15:41:37;24.00;99.90
3035;DHT22;1527;48.836;9.172;2022-08-19T15:44:12;23.90;99.90
3035;DHT22;1527;48.836;9.172;2022-08-19T15:46:45;24.00;99.90
3035;DHT22;1527;48.836;9.172;2022-08-19T15:49:17;24.00;99.90
3035;DHT22;1527;48.836;9.172;2022-08-19T15:51:48;24.00;99.90
3035;DHT22;1527;48.836;9.172;2022-08-19T15:54:20;24.00;99.90
3035;DHT22;1527;48.836;9.172;2022-08-19T15:56:50;24.00;99.90
3035;DHT22;1527;48.836;9.172;2022-08-19T15:59:39;23.90;99.90
3035;DHT22;1527;48.836;9.172;2022-08-19T16:02:31;23.80;99.90
3035;DHT22;1527;48.836;9.172;2022-08-19T16:05:23;23.90;99.90
3035;DHT22;1527;48.836;9.172;2022-08-19T16:08:11;24.10;99.90
3035;DHT22;1527;48.836;9.172;2022-08-19T16:10:42;24.00;99.90
3035;DHT22;1527;48.836;9.172;2022-08-19T16:13:11;23.80;99.90
3035;DHT22;1527;48.836;9.172;2022-08-19T16:15:41;23.50;99.90
3035;DHT22;1527;48.836;9.172;2022-08-19T16:18:11;23.70;99.90
3035;DHT22;1527;48.836;9.172;2022-08-19T16:20:40;23.70;99.90
3035;DHT22;1527;48.836;9.172;2022-08-19T16:23:10;23.70;99.90
3035;DHT22;1527;48.836;9.172;2022-08-19T16:25:39;23.70;99.90
3035;DHT22;1527;48.836;9.172;2022-08-19T16:28:11;23.60;99.90
3035;DHT22;1527;48.836;9.172;2022-08-19T16:30:43;23.50;99.90
3035;DHT22;1527;48.836;9.172;2022-08-19T16:33:17;23.30;99.90
3035;DHT22;1527;48.836;9.172;2022-08-19T16:35:50;23.30;99.90
3035;DHT22;1527;48.836;9.172;2022-08-19T16:38:28;23.40;99.90
3035;DHT22;1527;48.836;9.172;2022-08-19T16:40:58;23.30;99.90